createdAt,value
2023-01-15T00:00:11.157Z,1.03
2023-01-15T00:02:37.518Z,1.26
2023-01-15T00:05:03.937Z,1.26
2023-01-15T00:07:30.283Z,1.35
2023-01-15T00:09:56.599Z,1.25
2023-01-15T00:12:22.928Z,1.27
2023-01-15T00:14:49.820Z,1.37
2023-01-15T00:19:45.944Z,1.51
2023-01-15T00:22:12.322Z,1.33
2023-01-15T00:24:39.044Z,1.24
2023-01-15T00:27:05.438Z,1.21
2023-01-15T00:29:31.785Z,1.28
2023-01-15T00:31:58.110Z,1.22
2023-01-15T00:34:24.983Z,1.26
2023-01-15T00:36:51.419Z,1.20
2023-01-15T00:39:17.780Z,1.29
2023-01-15T00:41:44.235Z,1.17
2023-01-15T00:44:10.762Z,1.18
2023-01-15T00:46:37.130Z,1.12
2023-01-15T00:49:03.479Z,1.18
2023-01-15T00:51:29.845Z,1.17
2023-01-15T00:53:56.239Z,1.16
2023-01-15T00:56:22.639Z,1.07
2023-01-15T00:58:48.977Z,1.03
2023-01-15T01:01:15.365Z,1.25
2023-01-15T01:03:41.889Z,1.23
2023-01-15T01:06:08.222Z,1.00
2023-01-15T01:08:34.600Z,0.97
2023-01-15T01:11:00.940Z,1.03
2023-01-15T01:13:27.306Z,0.70
2023-01-15T01:15:53.679Z,0.66
2023-01-15T01:18:20.026Z,0.81
2023-01-15T01:20:46.405Z,0.76
2023-01-15T01:23:12.789Z,0.73
2023-01-15T01:25:39.121Z,0.88
2023-01-15T01:28:05.480Z,1.29
2023-01-15T01:30:31.798Z,1.28
2023-01-15T01:32:58.140Z,1.39
2023-01-15T01:35:24.506Z,1.30
2023-01-15T01:37:50.900Z,1.24
2023-01-15T01:40:17.306Z,1.32
2023-01-15T01:42:43.635Z,1.35
2023-01-15T01:45:10.030Z,1.26
2023-01-15T01:47:36.353Z,1.30
2023-01-15T01:50:02.674Z,1.24
2023-01-15T01:52:28.991Z,1.19
2023-01-15T01:54:55.356Z,1.15
2023-01-15T01:57:22.427Z,1.15
2023-01-15T01:59:48.886Z,1.20
2023-01-15T02:02:15.378Z,1.04
2023-01-15T02:04:41.958Z,1.07
2023-01-15T02:07:08.332Z,0.99
2023-01-15T02:09:34.858Z,1.05
2023-01-15T02:12:01.250Z,1.10
2023-01-15T02:14:27.588Z,1.09
2023-01-15T02:16:53.954Z,1.18
2023-01-15T02:19:20.299Z,1.27
2023-01-15T02:21:46.708Z,1.09
2023-01-15T02:24:13.077Z,0.95
2023-01-15T02:26:39.779Z,0.92
2023-01-15T02:29:07.252Z,0.80
2023-01-15T02:31:33.677Z,0.69
2023-01-15T02:34:00.123Z,0.81
2023-01-15T02:36:26.771Z,0.68
2023-01-15T02:38:53.144Z,0.73
2023-01-15T02:41:19.779Z,0.65
2023-01-15T02:43:46.286Z,0.70
2023-01-15T02:46:12.741Z,0.71
2023-01-15T02:48:39.128Z,0.66
2023-01-15T02:51:06.518Z,0.71
2023-01-15T02:53:32.899Z,0.71
2023-01-15T02:55:59.239Z,0.77
2023-01-15T02:58:25.981Z,0.69
2023-01-15T03:00:52.482Z,0.72
2023-01-15T03:03:18.885Z,0.82
2023-01-15T03:05:45.225Z,0.68
2023-01-15T03:08:11.604Z,0.91
2023-01-15T03:10:37.944Z,0.71
2023-01-15T03:13:04.275Z,0.87
2023-01-15T03:15:33.700Z,0.78
2023-01-15T03:18:00.131Z,0.78
2023-01-15T03:20:27.521Z,0.88
2023-01-15T03:22:53.877Z,0.82
2023-01-15T03:25:20.256Z,0.78
2023-01-15T03:27:46.610Z,0.76
2023-01-15T03:30:12.981Z,0.85
2023-01-15T03:32:39.390Z,0.81
2023-01-15T03:35:06.783Z,0.90
2023-01-15T03:37:33.464Z,0.87
2023-01-15T03:39:59.832Z,0.93
2023-01-15T03:42:26.209Z,0.96
2023-01-15T03:44:52.571Z,0.88
2023-01-15T03:47:18.982Z,0.98
2023-01-15T03:49:45.300Z,1.00
2023-01-15T03:52:11.626Z,0.91
2023-01-15T03:54:37.989Z,0.96
2023-01-15T03:57:04.336Z,0.99
2023-01-15T03:59:30.715Z,0.88
2023-01-15T04:01:57.525Z,0.76
2023-01-15T04:04:23.998Z,0.68
2023-01-15T04:06:50.354Z,0.77
2023-01-15T04:09:16.724Z,0.74
2023-01-15T04:11:43.249Z,0.62
2023-01-15T04:14:11.959Z,0.54
2023-01-15T04:16:39.352Z,0.44
2023-01-15T04:19:05.705Z,0.47
2023-01-15T04:21:32.194Z,0.45
2023-01-15T04:23:58.560Z,0.46
2023-01-15T04:26:27.646Z,0.32
2023-01-15T04:28:54.222Z,0.36
2023-01-15T04:31:20.649Z,0.38
2023-01-15T04:33:49.537Z,0.44
2023-01-15T04:36:15.921Z,0.28
2023-01-15T04:38:42.603Z,0.20
2023-01-15T04:41:09.082Z,0.23
2023-01-15T04:43:35.544Z,0.24
2023-01-15T04:46:02.139Z,0.17
2023-01-15T04:48:28.480Z,0.17
2023-01-15T04:50:58.228Z,0.27
2023-01-15T04:53:24.963Z,0.23
2023-01-15T04:55:51.320Z,0.17
2023-01-15T04:58:17.653Z,0.14
2023-01-15T05:00:44.034Z,0.18
2023-01-15T05:03:10.431Z,0.15
2023-01-15T05:05:36.788Z,0.16
2023-01-15T05:08:05.212Z,0.15
2023-01-15T05:10:31.683Z,0.20
2023-01-15T05:12:59.221Z,0.16
2023-01-15T05:15:25.618Z,0.11
2023-01-15T05:17:52.001Z,0.10
2023-01-15T05:20:23.651Z,0.14
2023-01-15T05:22:50.007Z,0.16
2023-01-15T05:25:16.401Z,0.17
2023-01-15T05:27:42.791Z,0.11
2023-01-15T05:30:09.171Z,0.13
2023-01-15T05:32:35.764Z,0.18
2023-01-15T05:35:02.468Z,0.24
2023-01-15T05:37:28.848Z,0.13
2023-01-15T05:39:55.185Z,0.11
2023-01-15T05:42:21.546Z,0.13
2023-01-15T05:44:47.926Z,0.12
2023-01-15T05:47:14.312Z,0.12
2023-01-15T05:49:40.651Z,0.13
2023-01-15T05:52:07.013Z,0.17
2023-01-15T05:54:33.354Z,0.14
2023-01-15T05:56:59.689Z,0.20
2023-01-15T05:59:26.243Z,0.17
2023-01-15T06:01:52.752Z,0.16
2023-01-15T06:04:19.195Z,0.24
2023-01-15T06:06:48.092Z,0.17
2023-01-15T06:09:14.475Z,0.17
2023-01-15T06:11:40.842Z,0.27
2023-01-15T06:14:07.418Z,0.23
2023-01-15T06:16:34.119Z,0.25
2023-01-15T06:19:00.508Z,0.34
2023-01-15T06:21:26.897Z,0.20
2023-01-15T06:23:53.240Z,0.28
2023-01-15T06:26:19.623Z,0.32
2023-01-15T06:28:45.979Z,0.31
2023-01-15T06:31:12.394Z,0.32
2023-01-15T06:33:38.813Z,0.24
2023-01-15T06:36:06.219Z,0.39
2023-01-15T06:38:32.627Z,0.31
2023-01-15T06:40:59.002Z,0.33
2023-01-15T06:43:25.474Z,0.32
2023-01-15T06:45:51.853Z,0.28
2023-01-15T06:48:18.181Z,0.32
2023-01-15T06:50:44.558Z,0.35
2023-01-15T06:53:10.936Z,0.27
2023-01-15T06:55:38.299Z,0.33
2023-01-15T06:58:05.006Z,0.35
2023-01-15T07:00:31.390Z,0.21
2023-01-15T07:02:57.769Z,0.36
2023-01-15T07:05:26.194Z,0.34
2023-01-15T07:07:52.672Z,0.32
2023-01-15T07:10:19.047Z,0.30
2023-01-15T07:12:45.488Z,0.37
2023-01-15T07:15:11.831Z,0.38
2023-01-15T07:17:38.205Z,0.34
2023-01-15T07:20:04.705Z,0.24
2023-01-15T07:22:31.053Z,0.45
2023-01-15T07:24:57.846Z,0.41
2023-01-15T07:27:24.863Z,0.36
2023-01-15T07:29:51.305Z,0.36
2023-01-15T07:32:18.195Z,0.44
2023-01-15T07:34:44.578Z,0.44
2023-01-15T07:37:10.920Z,0.38
2023-01-15T07:39:37.299Z,0.58
2023-01-15T07:42:03.693Z,0.41
2023-01-15T07:44:32.323Z,0.39
2023-01-15T07:46:58.707Z,0.50
2023-01-15T07:49:25.054Z,0.43
2023-01-15T07:51:51.486Z,0.50
2023-01-15T07:54:17.884Z,0.41
2023-01-15T07:56:46.492Z,0.41
2023-01-15T07:59:12.839Z,0.42
2023-01-15T08:01:39.457Z,0.53
2023-01-15T08:04:06.509Z,0.58
2023-01-15T08:06:32.905Z,0.53
2023-01-15T08:09:03.841Z,0.61
2023-01-15T08:11:30.221Z,0.52
2023-01-15T08:13:56.596Z,0.56
2023-01-15T08:16:23.172Z,1.46
2023-01-15T08:18:51.904Z,1.00
2023-01-15T08:21:18.287Z,0.79
2023-01-15T08:23:44.657Z,0.80
2023-01-15T08:26:10.990Z,0.72
2023-01-15T08:28:37.351Z,0.79
2023-01-15T08:31:03.731Z,0.73
2023-01-15T08:33:30.329Z,0.78
2023-01-15T08:35:56.774Z,0.83
2023-01-15T08:38:25.169Z,0.89
2023-01-15T08:40:51.803Z,0.91
2023-01-15T08:43:18.202Z,1.04
2023-01-15T08:45:46.597Z,0.95
2023-01-15T08:48:12.970Z,0.90
2023-01-15T08:50:39.421Z,1.26
2023-01-15T08:53:07.809Z,1.36
2023-01-15T08:55:34.360Z,1.33
2023-01-15T08:58:00.907Z,1.22
2023-01-15T09:00:27.291Z,1.28
2023-01-15T09:02:53.711Z,1.44
2023-01-15T09:05:20.368Z,1.37
2023-01-15T09:07:48.832Z,1.54
2023-01-15T09:10:17.838Z,1.35
2023-01-15T09:12:44.212Z,1.40
2023-01-15T09:15:10.552Z,0.97
2023-01-15T09:17:36.877Z,0.77
2023-01-15T09:20:03.739Z,0.83
2023-01-15T09:22:30.250Z,0.65
2023-01-15T09:24:59.409Z,0.56
2023-01-15T09:27:26.210Z,0.46
2023-01-15T09:29:54.648Z,0.48
2023-01-15T09:32:23.325Z,0.43
2023-01-15T09:34:49.697Z,0.36
2023-01-15T09:37:18.878Z,0.34
2023-01-15T09:39:45.248Z,0.34
2023-01-15T09:42:11.639Z,0.42
2023-01-15T09:44:40.322Z,0.46
2023-01-15T09:47:07.710Z,0.33
2023-01-15T09:49:34.036Z,0.35
2023-01-15T09:52:00.395Z,0.19
2023-01-15T09:54:29.357Z,0.27
2023-01-15T09:56:55.706Z,0.23
2023-01-15T09:59:22.153Z,0.16
2023-01-15T10:01:48.536Z,0.18
2023-01-15T10:04:15.034Z,0.17
2023-01-15T10:06:41.597Z,0.31
2023-01-15T10:09:07.950Z,0.26
2023-01-15T10:11:34.409Z,0.18
2023-01-15T10:14:00.846Z,0.20
2023-01-15T10:16:34.401Z,0.30
2023-01-15T10:19:03.038Z,0.22
2023-01-15T10:21:31.740Z,0.20
2023-01-15T10:23:58.320Z,0.30
2023-01-15T10:26:25.733Z,0.28
2023-01-15T10:28:52.483Z,0.28
2023-01-15T10:31:19.896Z,0.23
2023-01-15T10:33:46.320Z,0.16
2023-01-15T10:36:12.706Z,0.20
2023-01-15T10:38:40.340Z,0.23
2023-01-15T10:41:06.687Z,0.24
2023-01-15T10:43:33.100Z,0.23
2023-01-15T10:45:59.485Z,0.31
2023-01-15T10:48:25.864Z,0.19
2023-01-15T10:50:52.506Z,0.19
2023-01-15T10:53:18.957Z,0.10
2023-01-15T10:55:45.566Z,0.18
2023-01-15T10:58:12.296Z,0.13
2023-01-15T11:00:38.908Z,0.23
2023-01-15T11:03:05.421Z,0.20
2023-01-15T11:05:31.791Z,0.18
2023-01-15T11:10:44.669Z,0.26
2023-01-15T11:13:11.026Z,0.34
2023-01-15T11:15:37.597Z,0.21
2023-01-15T11:18:04.075Z,0.20
2023-01-15T11:20:30.521Z,0.24
2023-01-15T11:23:02.240Z,0.32
2023-01-15T11:25:28.804Z,0.28
2023-01-15T11:27:57.721Z,0.21
2023-01-15T11:30:24.287Z,0.16
2023-01-15T11:32:53.986Z,0.20
2023-01-15T11:37:57.746Z,0.21
2023-01-15T11:40:24.128Z,0.23
2023-01-15T11:42:51.521Z,0.15
2023-01-15T11:45:20.324Z,0.25
2023-01-15T11:47:47.587Z,0.21
2023-01-15T11:50:14.163Z,0.12
2023-01-15T11:52:40.554Z,0.15
2023-01-15T11:55:06.972Z,0.13
2023-01-15T11:57:33.340Z,0.12
2023-01-15T12:00:00.895Z,0.12
2023-01-15T12:02:29.378Z,0.18
2023-01-15T12:04:58.038Z,0.20
2023-01-15T12:07:25.557Z,0.14
2023-01-15T12:09:51.897Z,0.16
2023-01-15T12:12:18.225Z,0.16
2023-01-15T12:14:44.569Z,0.16
2023-01-15T12:17:11.342Z,0.22
2023-01-15T12:19:37.833Z,0.28
2023-01-15T12:22:07.071Z,0.20
2023-01-15T12:24:35.684Z,0.24
2023-01-15T12:29:41.572Z,0.36
2023-01-15T12:32:15.778Z,0.26
2023-01-15T12:34:45.857Z,0.27
2023-01-15T12:37:12.311Z,0.20
2023-01-15T12:39:38.726Z,0.19
2023-01-15T12:42:05.302Z,16.86
2023-01-15T12:44:32.218Z,23.60
2023-01-15T12:47:02.944Z,26.13
2023-01-15T12:49:30.897Z,23.20
2023-01-15T12:51:57.329Z,39.30
2023-01-15T12:54:23.841Z,3.07
2023-01-15T12:56:52.333Z,0.23
2023-01-15T12:59:18.880Z,0.29
2023-01-15T13:01:47.706Z,0.31
2023-01-15T13:04:15.552Z,0.36
2023-01-15T13:06:44.217Z,0.31
2023-01-15T13:09:10.598Z,0.34
2023-01-15T13:11:36.981Z,0.39
2023-01-15T13:14:03.372Z,0.37
2023-01-15T13:16:30.913Z,0.43
2023-01-15T13:18:59.331Z,0.44
2023-01-15T13:21:25.888Z,0.41
2023-01-15T13:23:53.351Z,0.75
2023-01-15T13:26:20.420Z,1.18
2023-01-15T13:28:48.868Z,0.62
2023-01-15T13:31:15.273Z,0.61
2023-01-15T13:33:42.242Z,0.46
2023-01-15T13:36:08.660Z,0.36
2023-01-15T13:38:35.006Z,0.35
2023-01-15T13:41:01.497Z,0.38
2023-01-15T13:43:30.295Z,0.35
2023-01-15T13:45:56.916Z,0.40
2023-01-15T13:48:23.847Z,0.43
2023-01-15T13:50:50.470Z,0.36
2023-01-15T13:53:16.838Z,0.41
2023-01-15T13:55:43.227Z,0.45
2023-01-15T13:58:09.772Z,0.33
2023-01-15T14:00:36.320Z,0.30
2023-01-15T14:03:02.847Z,0.32
2023-01-15T14:05:29.317Z,0.26
2023-01-15T14:07:57.714Z,0.27
2023-01-15T14:10:24.674Z,0.24
2023-01-15T14:12:52.026Z,0.26
2023-01-15T14:15:19.409Z,0.34
2023-01-15T14:17:45.754Z,0.31
2023-01-15T14:20:12.233Z,0.43
2023-01-15T14:25:20.061Z,0.43
2023-01-15T14:27:46.418Z,0.38
2023-01-15T14:30:12.800Z,0.36
2023-01-15T14:32:39.131Z,0.47
2023-01-15T14:35:05.593Z,0.43
2023-01-15T14:37:32.571Z,0.43
2023-01-15T14:39:58.951Z,0.50
2023-01-15T14:42:25.299Z,0.45
2023-01-15T14:44:52.625Z,0.48
2023-01-15T14:47:19.398Z,0.36
2023-01-15T14:49:45.810Z,0.34
2023-01-15T14:52:12.213Z,0.27
2023-01-15T14:54:38.589Z,0.39
2023-01-15T14:57:04.962Z,0.38
2023-01-15T14:59:33.951Z,0.42
2023-01-15T15:02:02.501Z,0.47
2023-01-15T15:04:28.984Z,0.39
2023-01-15T15:06:58.355Z,0.35
2023-01-15T15:09:27.563Z,0.32
2023-01-15T15:11:53.913Z,0.38
2023-01-15T15:14:20.276Z,0.37
2023-01-15T15:16:46.764Z,0.32
2023-01-15T15:19:13.121Z,0.43
2023-01-15T15:21:39.505Z,0.68
2023-01-15T15:24:05.913Z,0.44
2023-01-15T15:26:32.416Z,0.52
2023-01-15T15:28:58.761Z,0.42
2023-01-15T15:31:27.173Z,0.36
2023-01-15T15:33:59.489Z,0.40
2023-01-15T15:36:26.705Z,0.37
2023-01-15T15:38:55.223Z,0.47
2023-01-15T15:41:21.676Z,0.36
2023-01-15T15:43:48.100Z,0.37
2023-01-15T16:13:09.635Z,0.48
2023-01-15T16:15:36.033Z,0.54
2023-01-15T16:18:02.797Z,0.51
2023-01-15T16:20:29.152Z,0.59
2023-01-15T16:22:55.499Z,1.94
2023-01-15T16:25:22.922Z,0.98
2023-01-15T16:27:49.417Z,0.88
2023-01-15T16:30:16.766Z,0.72
2023-01-15T16:32:43.102Z,0.85
2023-01-15T16:35:10.505Z,0.99
2023-01-15T16:37:36.843Z,0.93
2023-01-15T16:40:03.260Z,0.64
2023-01-15T16:42:29.589Z,0.72
2023-01-15T16:44:55.966Z,0.70
2023-01-15T16:47:22.574Z,0.71
2023-01-15T16:49:48.955Z,0.68
2023-01-15T16:52:15.329Z,0.60
2023-01-15T16:54:41.716Z,0.62
2023-01-15T16:57:08.286Z,0.62
2023-01-15T16:59:34.669Z,0.65
2023-01-15T17:02:02.140Z,0.59
2023-01-15T17:04:31.627Z,0.65
2023-01-15T17:06:58.003Z,0.63
2023-01-15T17:09:25.682Z,0.66
2023-01-15T17:11:53.258Z,0.69
2023-01-15T17:14:19.606Z,0.67
2023-01-15T17:16:46.166Z,0.56
2023-01-15T17:19:12.566Z,0.78
2023-01-15T17:21:39.137Z,0.74
2023-01-15T17:24:05.616Z,0.70
2023-01-15T17:26:31.994Z,0.77
2023-01-15T17:28:58.331Z,0.87
2023-01-15T17:31:25.657Z,0.65
2023-01-15T17:33:54.672Z,0.69
2023-01-15T17:36:21.048Z,0.84
2023-01-15T17:38:47.435Z,0.93
2023-01-15T17:41:13.947Z,0.94
2023-01-15T17:43:40.523Z,0.96
2023-01-15T17:46:06.923Z,0.95
2023-01-15T17:48:33.320Z,0.92
2023-01-15T17:51:01.668Z,0.79
2023-01-15T17:53:28.059Z,0.75
2023-01-15T17:55:54.465Z,1.05
2023-01-15T17:58:21.219Z,1.21
2023-01-15T18:00:48.620Z,1.14
2023-01-15T18:03:15.635Z,1.31
2023-01-15T18:05:42.019Z,1.35
2023-01-15T18:08:10.901Z,1.33
2023-01-15T18:10:37.257Z,1.60
2023-01-15T18:13:04.986Z,1.81
2023-01-15T18:15:33.475Z,2.03
2023-01-15T18:17:59.885Z,2.08
2023-01-15T18:20:26.265Z,1.86
2023-01-15T18:22:54.964Z,1.87
2023-01-15T18:25:21.376Z,1.85
2023-01-15T18:27:47.908Z,2.10
2023-01-15T18:30:14.297Z,2.20
2023-01-15T18:32:40.992Z,2.05
2023-01-15T18:35:07.671Z,2.07
2023-01-15T18:37:36.340Z,2.16
2023-01-15T18:40:02.697Z,1.94
2023-01-15T18:42:29.484Z,2.10
2023-01-15T18:44:55.867Z,2.48
2023-01-15T18:47:32.988Z,2.07
2023-01-15T18:49:59.460Z,1.95
2023-01-15T18:52:28.161Z,2.10
2023-01-15T18:54:54.576Z,2.13
2023-01-15T18:57:20.930Z,2.01
2023-01-15T18:59:49.580Z,2.06
2023-01-15T19:02:17.025Z,2.04
2023-01-15T19:04:44.105Z,1.94
2023-01-15T19:07:14.336Z,1.97
2023-01-15T19:09:40.886Z,1.89
2023-01-15T19:12:08.118Z,2.01
2023-01-15T19:14:36.880Z,2.08
2023-01-15T19:17:05.797Z,2.11
2023-01-15T19:19:32.406Z,2.01
2023-01-15T19:21:58.802Z,2.38
2023-01-15T19:24:25.343Z,3.69
2023-01-15T19:26:51.814Z,2.72
2023-01-15T19:29:20.246Z,2.59
2023-01-15T19:31:47.091Z,2.39
2023-01-15T19:34:33.262Z,2.67
2023-01-15T19:36:59.805Z,2.46
2023-01-15T19:39:26.481Z,2.59
2023-01-15T19:41:55.131Z,2.63
2023-01-15T19:44:22.544Z,2.67
2023-01-15T19:46:48.995Z,2.39
2023-01-15T19:49:15.422Z,2.29
2023-01-15T19:51:44.123Z,2.39
2023-01-15T19:54:10.728Z,2.91
2023-01-15T19:56:37.087Z,2.50
2023-01-15T19:59:06.582Z,2.52
2023-01-15T20:01:33.090Z,2.58
2023-01-15T20:03:59.698Z,2.67
2023-01-15T20:06:26.310Z,2.59
2023-01-15T20:08:54.849Z,2.36
2023-01-15T20:11:21.404Z,2.20
2023-01-15T20:13:47.810Z,2.24
2023-01-15T20:16:14.543Z,1.75
2023-01-15T20:18:43.172Z,1.27
2023-01-15T20:21:09.859Z,1.03
2023-01-15T20:23:36.817Z,1.04
2023-01-15T20:26:06.953Z,1.00
2023-01-15T20:28:33.522Z,1.05
2023-01-15T20:31:04.270Z,1.06
2023-01-15T20:33:31.887Z,1.18
2023-01-15T20:35:59.014Z,1.11
2023-01-15T20:38:27.720Z,1.19
2023-01-15T20:40:54.537Z,1.21
2023-01-15T20:43:20.955Z,1.18
2023-01-15T20:45:47.750Z,1.18
2023-01-15T20:48:15.211Z,1.12
2023-01-15T20:50:43.668Z,1.12
2023-01-15T20:53:10.333Z,1.19
2023-01-15T20:55:54.435Z,1.29
2023-01-15T20:58:25.446Z,1.21
2023-01-15T21:00:52.174Z,1.42
2023-01-15T21:03:18.860Z,1.46
2023-01-15T21:05:45.256Z,1.38
2023-01-15T21:08:13.925Z,1.94
2023-01-15T21:10:40.527Z,1.99
2023-01-15T21:13:06.945Z,1.80
2023-01-15T21:15:34.290Z,1.37
2023-01-15T21:18:03.974Z,1.34
2023-01-15T21:20:30.802Z,1.34
2023-01-15T21:22:57.158Z,1.76
2023-01-15T21:25:23.789Z,1.54
2023-01-15T21:27:50.239Z,1.57
2023-01-15T21:30:16.625Z,1.68
2023-01-15T21:32:43.170Z,1.66
2023-01-15T21:35:10.412Z,1.67
2023-01-15T21:37:38.962Z,1.45
2023-01-15T21:40:05.309Z,1.53
2023-01-15T21:42:31.719Z,1.58
2023-01-15T21:44:58.103Z,1.45
2023-01-15T21:47:24.498Z,1.78
2023-01-15T21:49:51.075Z,1.63
2023-01-15T21:52:17.585Z,1.43
2023-01-15T21:54:45.030Z,1.41
2023-01-15T21:57:11.426Z,1.66
2023-01-15T21:59:44.949Z,1.23
2023-01-15T22:02:12.494Z,1.31
2023-01-15T22:04:39.958Z,1.24
2023-01-15T22:07:07.418Z,1.24
2023-01-15T22:09:34.804Z,1.29
2023-01-15T22:12:08.719Z,1.47
2023-01-15T22:14:35.074Z,1.50
2023-01-15T22:17:01.474Z,1.92
2023-01-15T22:19:27.872Z,1.91
2023-01-15T22:21:54.480Z,1.88
2023-01-15T22:24:20.878Z,2.15
2023-01-15T22:26:47.228Z,1.96
2023-01-15T22:29:13.778Z,1.83
2023-01-15T22:31:40.129Z,1.73
2023-01-15T22:34:06.469Z,1.57
2023-01-15T22:36:33.011Z,1.60
2023-01-15T22:39:01.581Z,1.65
2023-01-15T22:41:28.389Z,1.54
2023-01-15T22:43:55.037Z,1.55
2023-01-15T22:46:21.567Z,1.25
2023-01-15T22:48:47.949Z,1.14
2023-01-15T22:51:16.867Z,1.00
2023-01-15T22:53:43.198Z,0.94
2023-01-15T22:56:09.620Z,0.84
2023-01-15T22:58:38.256Z,0.79
2023-01-15T23:01:05.069Z,0.86
2023-01-15T23:03:31.719Z,0.88
2023-01-15T23:05:59.093Z,0.88
2023-01-15T23:08:25.434Z,0.99
2023-01-15T23:10:54.309Z,0.93
2023-01-15T23:13:27.959Z,0.93
2023-01-15T23:15:55.414Z,0.92
2023-01-15T23:18:21.814Z,0.76
2023-01-15T23:20:48.293Z,0.79
2023-01-15T23:23:15.675Z,1.00
2023-01-15T23:25:42.009Z,1.12
2023-01-15T23:28:09.365Z,1.11
2023-01-15T23:30:37.680Z,1.18
2023-01-15T23:33:04.009Z,1.09
2023-01-15T23:35:30.455Z,1.08
2023-01-15T23:37:57.833Z,1.06
2023-01-15T23:40:25.104Z,0.95
2023-01-15T23:42:51.602Z,0.94
2023-01-15T23:45:17.957Z,1.01
2023-01-15T23:47:44.596Z,1.15
2023-01-15T23:50:11.201Z,0.91
2023-01-15T23:52:41.045Z,1.11
2023-01-15T23:55:08.433Z,1.05
2023-01-15T23:57:34.770Z,1.07
